Time;durP1;ratioP1;P1;durP2;ratioP2;P2;SDS_P1;SDS_P2;PMS_P1;PMS_P2;Temp;Humidity;BMP_temperature;BMP_pressure;BME280_temperature;BME280_humidity;BME280_pressure;Samples;Min_cycle;Max_cycle;Signal;HPM_P1;HPM_P2
2022/09/26 00:00:45;;;;;;;8.33;6.27;;;12.20;99.90;;;;;;5065392;28;20212;-76
2022/09/26 00:03:11;;;;;;;8.73;6.63;;;12.20;99.90;;;;;;5062339;28;20732;-76
2022/09/26 00:05:38;;;;;;;8.13;6.27;;;12.20;99.90;;;;;;5083776;28;20177;-76
2022/09/26 00:08:05;;;;;;;9.00;6.37;;;12.20;99.90;;;;;;5073229;28;20260;-76
2022/09/26 00:10:32;;;;;;;9.53;6.63;;;12.20;99.90;;;;;;5083084;28;20204;-76
2022/09/26 00:12:58;;;;;;;9.53;7.37;;;12.20;99.90;;;;;;5084913;28;20544;-76
2022/09/26 00:15:24;;;;;;;12.57;7.87;;;12.20;99.90;;;;;;5081195;28;20180;-75
2022/09/26 00:17:50;;;;;;;12.20;8.27;;;12.20;99.90;;;;;;5081096;28;20193;-76
2022/09/26 00:20:16;;;;;;;12.67;7.27;;;12.20;99.90;;;;;;5083324;28;20746;-76
2022/09/26 00:22:41;;;;;;;12.80;8.10;;;12.20;99.90;;;;;;5086339;28;20208;-76
2022/09/26 00:25:07;;;;;;;10.77;6.50;;;12.20;99.90;;;;;;5083921;28;20271;-76
2022/09/26 00:27:33;;;;;;;8.50;5.23;;;12.20;99.90;;;;;;5079422;28;20781;-76
2022/09/26 00:29:59;;;;;;;6.50;4.50;;;12.10;99.90;;;;;;5086350;28;20208;-76
2022/09/26 00:32:24;;;;;;;5.10;3.90;;;12.10;99.90;;;;;;5080845;28;20180;-76
2022/09/26 00:34:50;;;;;;;6.10;3.83;;;12.00;99.90;;;;;;5081218;28;20304;-76
2022/09/26 00:37:16;;;;;;;4.80;3.57;;;11.90;99.90;;;;;;5081558;28;20172;-76
2022/09/26 00:39:42;;;;;;;7.43;3.80;;;11.90;99.90;;;;;;5084635;28;20189;-76
2022/09/26 00:42:13;;;;;;;4.47;4.07;;;11.90;99.90;;;;;;5053082;28;20218;-76
2022/09/26 00:44:42;;;;;;;4.90;4.30;;;11.90;99.90;;;;;;5081528;28;20238;-76
2022/09/26 00:47:34;;;;;;;5.23;4.20;;;11.90;99.90;;;;;;5080546;28;20190;-76
2022/09/26 00:50:09;;;;;;;5.43;4.13;;;11.90;99.90;;;;;;5083846;28;20204;-76
2022/09/26 00:52:45;;;;;;;6.40;4.67;;;12.00;99.90;;;;;;5053935;28;20229;-76
2022/09/26 00:55:13;;;;;;;5.87;4.20;;;12.00;99.90;;;;;;5084656;28;20271;-76
2022/09/26 00:57:55;;;;;;;4.33;3.83;;;12.00;99.90;;;;;;5081484;28;20223;-76
2022/09/26 01:00:22;;;;;;;6.60;4.60;;;12.00;99.90;;;;;;5007906;28;1040819;-76
2022/09/26 01:02:51;;;;;;;8.33;5.70;;;12.00;99.90;;;;;;5068898;28;20271;-76
2022/09/26 01:05:20;;;;;;;8.67;6.10;;;11.90;99.90;;;;;;5066737;28;20185;-76
2022/09/26 01:07:49;;;;;;;9.50;6.67;;;11.90;99.90;;;;;;5080377;28;20256;-76
2022/09/26 01:10:15;;;;;;;8.40;6.13;;;11.90;99.90;;;;;;5080955;28;20201;-76
2022/09/26 01:12:42;;;;;;;9.10;6.17;;;11.90;99.90;;;;;;5084376;28;20181;-76
2022/09/26 01:15:08;;;;;;;9.53;5.67;;;11.90;99.90;;;;;;5084346;28;20208;-76
2022/09/26 01:17:37;;;;;;;6.87;5.20;;;11.90;99.90;;;;;;5077573;28;20640;-76
2022/09/26 01:20:26;;;;;;;11.03;6.43;;;11.90;99.90;;;;;;5045829;28;20203;-76
2022/09/26 01:23:25;;;;;;;7.90;5.93;;;11.90;99.90;;;;;;5068799;28;20730;-76
2022/09/26 01:26:22;;;;;;;7.03;5.63;;;11.90;99.90;;;;;;5061699;28;20234;-76
2022/09/26 01:29:07;;;;;;;11.97;7.73;;;11.90;99.90;;;;;;5084301;28;20904;-77
2022/09/26 01:34:58;;;;;;;12.63;8.63;;;11.80;99.90;;;;;;5060304;28;20217;-76
2022/09/26 01:37:55;;;;;;;11.20;6.63;;;11.80;99.90;;;;;;5050293;28;20254;-76
2022/09/26 01:40:27;;;;;;;9.67;6.20;;;11.80;99.90;;;;;;5067261;28;20236;-76
2022/09/26 01:43:15;;;;;;;8.03;6.07;;;11.80;99.90;;;;;;5066986;28;20194;-76
2022/09/26 01:45:47;;;;;;;6.17;4.80;;;11.80;99.90;;;;;;5065714;28;20184;-76
2022/09/26 01:48:20;;;;;;;6.13;5.00;;;11.80;99.90;;;;;;5078418;28;20809;-77
2022/09/26 01:50:54;;;;;;;7.00;4.70;;;11.70;99.90;;;;;;5080384;28;20292;-77
2022/09/26 01:53:40;;;;;;;8.73;4.87;;;11.70;99.90;;;;;;5063185;28;20200;-77
2022/09/26 01:56:16;;;;;;;7.10;4.90;;;11.70;99.90;;;;;;5079777;28;20279;-77
2022/09/26 01:58:50;;;;;;;6.37;4.70;;;11.70;99.90;;;;;;5059201;28;20208;-77
2022/09/26 02:01:18;;;;;;;7.23;4.83;;;11.60;99.90;;;;;;5061021;28;20199;-77
2022/09/26 02:03:51;;;;;;;5.87;4.10;;;11.50;99.90;;;;;;5065467;28;20213;-77
2022/09/26 02:06:27;;;;;;;7.33;5.27;;;11.50;99.90;;;;;;5043201;28;20195;-77
2022/09/26 02:09:10;;;;;;;7.40;5.00;;;11.40;99.90;;;;;;5062772;28;20185;-77
2022/09/26 02:11:42;;;;;;;5.77;4.83;;;11.30;99.90;;;;;;5051102;28;20243;-76
2022/09/26 02:14:26;;;;;;;5.30;4.30;;;11.30;99.90;;;;;;5084358;28;20212;-76
2022/09/26 02:17:00;;;;;;;6.53;4.73;;;11.20;99.90;;;;;;5062799;28;20762;-76
2022/09/26 02:19:34;;;;;;;5.93;4.80;;;11.20;99.90;;;;;;5070265;28;20707;-77
2022/09/26 02:22:00;;;;;;;9.57;5.73;;;11.20;99.90;;;;;;5057415;28;20180;-76
2022/09/26 02:24:27;;;;;;;8.40;6.23;;;11.30;99.90;;;;;;5046106;28;20173;-76
2022/09/26 02:26:53;;;;;;;10.40;7.90;;;11.20;99.90;;;;;;5066801;28;20188;-76
2022/09/26 02:29:19;;;;;;;8.50;6.13;;;11.30;99.90;;;;;;5061015;28;20204;-75
2022/09/26 02:31:52;;;;;;;7.43;5.43;;;11.30;99.90;;;;;;5059674;28;20706;-76
2022/09/26 02:34:18;;;;;;;6.60;5.57;;;11.30;99.90;;;;;;5060946;28;20251;-76
2022/09/26 02:36:45;;;;;;;9.33;6.77;;;11.30;99.90;;;;;;5066642;28;20184;-76
2022/09/26 02:39:11;;;;;;;10.07;7.20;;;11.30;99.90;;;;;;5081273;28;20573;-76
2022/09/26 02:42:12;;;;;;;11.30;7.67;;;11.30;99.90;;;;;;5061601;28;20181;-76
2022/09/26 02:44:49;;;;;;;10.80;7.63;;;11.30;99.90;;;;;;5066278;28;20268;-76
2022/09/26 02:47:48;;;;;;;11.63;8.03;;;11.30;99.90;;;;;;5064929;28;20173;-76
2022/09/26 02:50:46;;;;;;;10.67;6.97;;;11.40;99.90;;;;;;5056024;28;20265;-76
2022/09/26 02:53:43;;;;;;;9.10;5.83;;;11.40;99.90;;;;;;5060825;28;20950;-76
2022/09/26 02:56:28;;;;;;;6.27;5.57;;;11.30;99.90;;;;;;5060291;28;20173;-76
2022/09/26 02:59:20;;;;;;;8.47;5.63;;;11.30;99.90;;;;;;5060026;28;20173;-76
2022/09/26 03:01:55;;;;;;;8.53;5.63;;;11.20;99.90;;;;;;5068661;28;20184;-76
2022/09/26 03:04:49;;;;;;;7.37;5.33;;;11.20;99.90;;;;;;5062441;28;20184;-76
2022/09/26 03:07:48;;;;;;;9.00;6.37;;;11.20;99.90;;;;;;5060565;28;20795;-76
2022/09/26 03:10:16;;;;;;;8.77;6.10;;;11.20;99.90;;;;;;5046022;28;20255;-76
2022/09/26 03:12:43;;;;;;;6.70;5.07;;;11.20;99.90;;;;;;5060742;28;20176;-76
2022/09/26 03:15:11;;;;;;;8.23;5.20;;;11.20;99.90;;;;;;5049953;28;20760;-76
2022/09/26 03:17:42;;;;;;;5.17;4.60;;;11.10;99.90;;;;;;5075730;28;20172;-76
2022/09/26 03:20:16;;;;;;;7.57;5.07;;;11.00;99.90;;;;;;5065348;28;20235;-76
2022/09/26 03:22:42;;;;;;;6.60;4.50;;;11.00;99.90;;;;;;5052185;28;20648;-76
2022/09/26 03:25:13;;;;;;;6.07;4.90;;;11.00;99.90;;;;;;5059979;28;20183;-76
2022/09/26 03:27:46;;;;;;;8.27;5.27;;;10.90;99.90;;;;;;5054550;28;20180;-76
2022/09/26 03:30:14;;;;;;;6.60;5.50;;;10.80;99.90;;;;;;5061565;28;20211;-76
2022/09/26 03:32:49;;;;;;;7.40;5.00;;;10.80;99.90;;;;;;5062807;28;20209;-76
2022/09/26 03:35:15;;;;;;;14.60;7.70;;;10.80;99.90;;;;;;5076622;28;20621;-76
2022/09/26 03:37:42;;;;;;;12.73;9.00;;;10.80;99.90;;;;;;5063763;28;20188;-76
2022/09/26 03:40:11;;;;;;;11.37;8.30;;;10.80;99.90;;;;;;5047683;28;20287;-76
2022/09/26 03:42:56;;;;;;;9.37;6.90;;;10.80;99.90;;;;;;5073583;28;20728;-76
2022/09/26 03:45:23;;;;;;;11.30;8.63;;;10.80;99.90;;;;;;5085024;28;20257;-76
2022/09/26 03:48:03;;;;;;;9.97;7.53;;;10.80;99.90;;;;;;5060339;28;20180;-76
2022/09/26 03:50:28;;;;;;;16.83;11.83;;;10.80;99.90;;;;;;5083921;28;20242;-76
2022/09/26 03:52:54;;;;;;;20.63;12.93;;;10.70;99.90;;;;;;5059633;28;20189;-76
2022/09/26 03:55:20;;;;;;;12.97;9.60;;;10.70;99.90;;;;;;5060736;28;20847;-76
2022/09/26 03:57:46;;;;;;;15.73;10.03;;;10.70;99.90;;;;;;5056275;28;20172;-76
2022/09/26 04:00:23;;;;;;;12.80;9.63;;;10.70;99.90;;;;;;5059961;28;20739;-76
2022/09/26 04:02:49;;;;;;;7.50;5.73;;;10.70;99.90;;;;;;5056902;28;20180;-76
2022/09/26 04:05:34;;;;;;;7.10;5.60;;;;;;;;;;5059225;28;20425;-76
2022/09/26 04:08:01;;;;;;;9.03;4.80;;;;;;;;;;5054231;28;20705;-76
2022/09/26 04:10:28;;;;;;;4.80;4.30;;;;;;;;;;5061856;28;20211;-76
2022/09/26 04:12:55;;;;;;;6.00;4.97;;;10.60;99.90;;;;;;5063041;28;20208;-76
2022/09/26 04:15:22;;;;;;;6.93;5.77;;;10.60;99.90;;;;;;5067224;28;20179;-76
2022/09/26 04:17:53;;;;;;;10.47;6.77;;;10.60;99.90;;;;;;5061963;28;20216;-76
2022/09/26 04:20:19;;;;;;;7.37;6.37;;;10.60;99.90;;;;;;5064080;28;20192;-76
2022/09/26 04:22:45;;;;;;;8.57;7.13;;;10.70;99.90;;;;;;5066804;28;20184;-76
2022/09/26 04:25:11;;;;;;;8.97;6.80;;;10.60;99.90;;;;;;5067501;28;20200;-76
2022/09/26 04:27:38;;;;;;;6.80;5.70;;;10.60;99.90;;;;;;5062678;28;20193;-76
2022/09/26 04:30:05;;;;;;;6.53;5.23;;;10.60;99.90;;;;;;5063814;28;20197;-76
2022/09/26 04:32:45;;;;;;;7.80;7.00;;;10.60;99.90;;;;;;5061366;28;20547;-76
2022/09/26 04:35:34;;;;;;;10.93;6.53;;;10.70;99.90;;;;;;5080467;28;20216;-76
2022/09/26 04:37:59;;;;;;;10.00;7.53;;;10.70;99.90;;;;;;5062595;28;20603;-76
2022/09/26 04:40:30;;;;;;;11.27;8.17;;;10.70;99.90;;;;;;5039673;28;20204;-76
2022/09/26 04:43:05;;;;;;;10.37;6.77;;;10.70;99.90;;;;;;5061518;28;20760;-76
2022/09/26 04:45:31;;;;;;;15.07;7.50;;;10.60;99.90;;;;;;5071039;28;20184;-76
2022/09/26 04:47:57;;;;;;;8.83;6.50;;;10.60;99.90;;;;;;5058700;28;20199;-76
2022/09/26 04:50:25;;;;;;;9.67;7.20;;;10.70;99.90;;;;;;5082502;28;20276;-76
2022/09/26 04:53:05;;;;;;;14.50;9.60;;;10.70;99.90;;;;;;5081317;28;20185;-76
2022/09/26 04:55:34;;;;;;;12.57;8.93;;;10.70;99.90;;;;;;5056171;28;20185;-76
2022/09/26 04:58:01;;;;;;;13.60;8.60;;;10.70;99.90;;;;;;5065022;28;20181;-76
2022/09/26 05:00:27;;;;;;;11.57;7.53;;;10.70;99.90;;;;;;5044462;28;20228;-76
2022/09/26 05:02:55;;;;;;;13.13;8.10;;;10.70;99.90;;;;;;5044476;28;20200;-76
2022/09/26 05:05:20;;;;;;;9.40;7.10;;;10.70;99.90;;;;;;5059823;28;20283;-77
2022/09/26 05:07:46;;;;;;;14.40;9.53;;;10.70;99.90;;;;;;5083152;28;20880;-76
2022/09/26 05:10:12;;;;;;;9.40;7.83;;;10.70;99.90;;;;;;5066231;28;20204;-76
2022/09/26 05:12:47;;;;;;;9.00;6.90;;;10.80;99.90;;;;;;5060345;28;20598;-76
2022/09/26 05:15:13;;;;;;;10.87;8.47;;;10.80;99.90;;;;;;5063037;28;20212;-76
2022/09/26 05:17:39;;;;;;;11.07;7.73;;;10.80;99.90;;;;;;5084248;28;21000;-76
2022/09/26 05:20:07;;;;;;;10.90;8.10;;;10.90;99.90;;;;;;5067382;28;20681;-76
2022/09/26 05:22:46;;;;;;;11.20;6.77;;;10.90;99.90;;;;;;5068210;28;20177;-76
2022/09/26 05:27:56;;;;;;;7.40;6.27;;;11.00;99.90;;;;;;5058117;28;20709;-76
2022/09/26 05:30:25;;;;;;;7.77;6.20;;;11.00;99.90;;;;;;5056992;28;20235;-76
2022/09/26 05:32:52;;;;;;;7.00;6.30;;;11.00;99.90;;;;;;5067069;28;20381;-76
2022/09/26 05:35:18;;;;;;;9.23;6.20;;;11.10;99.90;;;;;;5082248;28;20204;-76
2022/09/26 05:37:44;;;;;;;8.03;6.27;;;11.10;99.90;;;;;;5066272;28;20191;-76
2022/09/26 05:43:00;;;;;;;10.40;7.50;;;11.10;99.90;;;;;;5057637;28;20525;-76
2022/09/26 05:45:26;;;;;;;9.10;6.47;;;11.20;99.90;;;;;;5041380;28;20670;-76
2022/09/26 05:47:52;;;;;;;6.43;5.80;;;11.20;99.90;;;;;;5061287;28;20204;-76
2022/09/26 05:50:21;;;;;;;7.83;6.53;;;11.30;99.90;;;;;;5061754;28;20201;-75
2022/09/26 05:52:47;;;;;;;8.80;5.60;;;11.20;99.90;;;;;;5063979;28;20328;-72
2022/09/26 05:55:19;;;;;;;8.83;5.63;;;11.20;99.90;;;;;;5061769;28;20283;-74
2022/09/26 05:58:06;;;;;;;8.27;5.80;;;11.20;99.90;;;;;;5074017;28;20225;-74
2022/09/26 06:00:51;;;;;;;8.43;5.93;;;11.20;99.90;;;;;;5082725;28;20675;-74
2022/09/26 06:03:18;;;;;;;7.60;6.03;;;11.30;99.90;;;;;;5060925;28;20351;-79
2022/09/26 06:05:59;;;;;;;7.20;5.80;;;11.30;99.90;;;;;;5066282;28;20180;-78
2022/09/26 06:08:29;;;;;;;6.10;5.50;;;11.30;99.90;;;;;;5066931;28;20200;-74
2022/09/26 06:11:16;;;;;;;8.60;5.93;;;11.40;99.90;;;;;;5080394;28;20447;-74
2022/09/26 06:13:44;;;;;;;9.60;5.43;;;11.40;99.90;;;;;;5062778;28;20207;-78
2022/09/26 06:16:13;;;;;;;6.80;5.53;;;11.50;99.90;;;;;;5075924;28;20214;-76
2022/09/26 06:18:42;;;;;;;9.23;5.90;;;11.60;99.90;;;;;;5084858;28;20207;-75
2022/09/26 06:21:11;;;;;;;8.00;6.00;;;11.70;99.90;;;;;;5068940;28;20196;-76
2022/09/26 06:23:37;;;;;;;7.10;5.87;;;11.80;99.90;;;;;;5049946;28;20271;-76
2022/09/26 06:26:07;;;;;;;7.63;5.93;;;11.80;99.90;;;;;;5068073;28;20187;-76
2022/09/26 06:28:34;;;;;;;7.23;5.20;;;11.90;99.90;;;;;;5064468;28;20209;-76
2022/09/26 06:31:12;;;;;;;7.30;5.30;;;12.00;99.90;;;;;;5062700;28;20200;-76
2022/09/26 06:33:57;;;;;;;5.83;4.50;;;12.10;99.90;;;;;;5078688;28;20226;-76
2022/09/26 06:36:34;;;;;;;7.07;4.73;;;12.20;99.90;;;;;;5058185;28;20651;-76
2022/09/26 06:39:00;;;;;;;5.33;4.80;;;12.40;99.90;;;;;;5045389;28;20181;-76
2022/09/26 06:41:30;;;;;;;8.03;5.30;;;12.50;99.90;;;;;;5067699;28;20180;-76
2022/09/26 06:43:56;;;;;;;5.90;4.53;;;12.60;99.90;;;;;;5066675;28;20180;-76
2022/09/26 06:46:40;;;;;;;8.07;4.77;;;12.60;99.90;;;;;;5074934;28;20317;-76
2022/09/26 06:49:15;;;;;;;9.90;5.23;;;12.70;99.90;;;;;;5079026;28;20211;-76
2022/09/26 06:51:47;;;;;;;6.90;5.17;;;12.80;99.90;;;;;;5055550;28;20220;-76
2022/09/26 06:54:14;;;;;;;7.23;4.83;;;12.90;99.90;;;;;;5065825;28;20236;-76
2022/09/26 06:56:40;;;;;;;6.83;4.87;;;13.00;99.90;;;;;;5061760;28;20881;-76
2022/09/26 06:59:07;;;;;;;9.30;5.47;;;13.00;99.90;;;;;;5063158;28;20191;-77
2022/09/26 07:01:35;;;;;;;7.33;5.10;;;13.00;99.90;;;;;;5065661;28;20181;-76
2022/09/26 07:04:09;;;;;;;8.17;5.77;;;13.00;99.90;;;;;;5043546;28;20338;-76
2022/09/26 07:06:42;;;;;;;7.10;5.47;;;12.90;99.90;;;;;;5082648;28;20169;-76
2022/09/26 07:09:08;;;;;;;5.93;4.93;;;12.80;99.90;;;;;;5061027;28;20256;-76
2022/09/26 07:11:54;;;;;;;6.87;5.60;;;12.80;99.90;;;;;;5047120;28;20279;-76
2022/09/26 07:14:20;;;;;;;7.87;6.50;;;12.80;99.90;;;;;;5066075;28;20335;-75
2022/09/26 07:16:52;;;;;;;6.90;6.17;;;12.80;99.90;;;;;;5066344;28;20172;-75
2022/09/26 07:19:38;;;;;;;9.30;6.00;;;12.80;99.90;;;;;;5075400;28;20603;-75
2022/09/26 07:22:07;;;;;;;8.07;6.87;;;12.90;99.90;;;;;;5066950;28;20595;-75
2022/09/26 07:24:45;;;;;;;10.67;6.83;;;12.90;99.90;;;;;;5055936;28;20187;-75
2022/09/26 07:27:11;;;;;;;9.63;7.00;;;12.90;99.90;;;;;;5061822;28;20181;-75
2022/09/26 07:29:38;;;;;;;10.07;8.70;;;13.00;99.90;;;;;;5059681;28;20220;-76
2022/09/26 07:32:04;;;;;;;10.50;8.97;;;13.00;99.90;;;;;;5061977;28;20188;-76
2022/09/26 07:34:40;;;;;;;15.10;10.73;;;13.00;99.90;;;;;;5041042;28;20230;-75
2022/09/26 07:37:06;;;;;;;16.10;10.50;;;13.00;99.90;;;;;;5063656;28;20287;-75
2022/09/26 07:39:32;;;;;;;12.03;10.70;;;13.00;99.90;;;;;;5061080;28;20199;-75
2022/09/26 07:42:00;;;;;;;12.50;10.40;;;12.90;99.90;;;;;;5057682;28;20990;-75
2022/09/26 07:44:26;;;;;;;12.53;10.40;;;12.90;99.90;;;;;;5057390;28;20184;-75
2022/09/26 07:52:33;;;;;;;12.93;9.40;;;12.80;99.90;;;;;;5065373;28;20670;-75
2022/09/26 07:55:21;;;;;;;11.83;9.80;;;12.70;99.90;;;;;;5083137;28;20281;-75
2022/09/26 07:57:58;;;;;;;12.37;9.90;;;12.70;99.90;;;;;;5063744;28;20187;-75
2022/09/26 08:00:46;;;;;;;12.70;10.33;;;12.80;99.90;;;;;;5072895;28;20233;-75
2022/09/26 08:03:27;;;;;;;10.93;8.67;;;12.80;99.90;;;;;;5067706;28;20184;-75
2022/09/26 08:05:57;;;;;;;12.20;9.10;;;12.80;99.90;;;;;;5051902;28;20629;-76
2022/09/26 08:08:23;;;;;;;11.43;8.63;;;12.90;99.90;;;;;;5076588;28;20196;-76
2022/09/26 08:10:58;;;;;;;9.17;8.10;;;12.90;99.90;;;;;;5056726;28;20192;-76
2022/09/26 08:13:47;;;;;;;11.17;8.60;;;13.00;99.90;;;;;;5062848;28;20350;-76
2022/09/26 08:16:21;;;;;;;10.23;8.13;;;13.00;99.90;;;;;;5044483;28;20181;-76
2022/09/26 08:18:48;;;;;;;9.87;8.83;;;13.10;99.90;;;;;;5054584;28;20200;-76
2022/09/26 08:21:14;;;;;;;10.60;8.83;;;13.20;99.90;;;;;;5065223;28;20172;-76
2022/09/26 08:23:40;;;;;;;9.43;8.43;;;13.30;99.90;;;;;;5065713;28;20868;-76
2022/09/26 08:26:24;;;;;;;12.93;8.53;;;13.40;99.90;;;;;;5077856;28;20181;-76
2022/09/26 08:28:58;;;;;;;12.53;8.50;;;13.30;99.90;;;;;;5066153;28;20179;-76
2022/09/26 08:31:25;;;;;;;10.47;7.90;;;13.30;99.90;;;;;;5069071;28;20176;-76
2022/09/26 08:33:51;;;;;;;12.17;7.43;;;13.30;99.90;;;;;;5066438;28;20197;-76
2022/09/26 08:36:18;;;;;;;7.73;6.50;;;13.30;99.90;;;;;;5063833;28;20764;-76
2022/09/26 08:38:58;;;;;;;8.63;6.70;;;13.50;99.90;;;;;;5070177;28;20188;-76
2022/09/26 08:42:06;;;;;;;8.50;6.20;;;13.60;99.90;;;;;;5025514;28;20195;-75
2022/09/26 08:46:29;;;;;;;10.27;7.10;;;13.70;99.90;;;;;;5064898;28;20229;-76
2022/09/26 08:48:37;;;;;;;8.20;6.50;;;13.80;99.90;;;;;;5074790;28;20188;-75
2022/09/26 08:51:31;;;;;;;7.37;6.20;;;13.90;99.90;;;;;;5064265;28;20200;-76
2022/09/26 08:54:13;;;;;;;8.20;6.57;;;14.10;99.90;;;;;;5070917;28;20214;-76
2022/09/26 08:56:46;;;;;;;7.47;6.33;;;14.40;99.90;;;;;;5046137;28;20207;-76
2022/09/26 08:59:24;;;;;;;7.03;5.50;;;14.60;99.90;;;;;;5067441;28;20679;-76
2022/09/26 09:01:53;;;;;;;7.87;5.73;;;14.80;99.90;;;;;;5043476;28;20932;-75
2022/09/26 09:04:43;;;;;;;6.37;5.27;;;14.80;99.90;;;;;;5058922;28;20192;-75
2022/09/26 09:07:35;;;;;;;6.60;5.20;;;14.90;99.90;;;;;;5060298;28;20232;-76
2022/09/26 09:10:09;;;;;;;6.13;4.50;;;14.90;99.90;;;;;;5059515;28;20212;-76
2022/09/26 09:13:22;;;;;;;5.83;3.70;;;15.00;99.90;;;;;;5067782;28;20199;-72
2022/09/26 09:16:50;;;;;;;7.77;3.83;;;15.10;99.90;;;;;;5079062;28;20306;-75
2022/09/26 09:19:42;;;;;;;5.50;3.77;;;15.10;99.90;;;;;;5022627;28;20315;-75
2022/09/26 09:22:48;;;;;;;5.43;3.60;;;15.10;99.90;;;;;;5084191;28;20602;-78
2022/09/26 09:25:38;;;;;;;5.57;3.63;;;15.10;99.90;;;;;;5045935;28;20177;-75
2022/09/26 09:28:31;;;;;;;6.63;4.00;;;15.10;99.90;;;;;;5052887;28;20181;-76
2022/09/26 09:31:05;;;;;;;4.93;3.60;;;15.00;99.90;;;;;;5062823;28;20200;-76
2022/09/26 09:33:40;;;;;;;4.03;2.83;;;14.90;99.90;;;;;;5085918;28;20676;-76
2022/09/26 09:36:35;;;;;;;4.80;2.90;;;14.90;99.90;;;;;;5050564;28;20185;-76
2022/09/26 09:39:26;;;;;;;4.30;2.97;;;15.00;99.90;;;;;;5080264;28;20201;-76
2022/09/26 09:42:21;;;;;;;3.97;2.87;;;15.00;99.90;;;;;;5061398;28;20181;-76
2022/09/26 09:45:02;;;;;;;7.17;2.93;;;15.00;99.90;;;;;;5081357;28;20572;-76
2022/09/26 09:47:36;;;;;;;5.23;3.13;;;15.00;99.90;;;;;;5041696;28;20665;-76
2022/09/26 09:50:15;;;;;;;3.70;2.70;;;15.10;99.90;;;;;;5062256;28;20296;-76
2022/09/26 09:53:07;;;;;;;3.03;2.60;;;15.30;99.90;;;;;;5078862;28;20926;-76
2022/09/26 09:56:03;;;;;;;3.70;2.63;;;15.40;99.90;;;;;;5048869;28;20232;-76
2022/09/26 09:58:54;;;;;;;4.43;2.80;;;15.70;99.80;;;;;;5066102;28;20179;-76
2022/09/26 10:01:25;;;;;;;5.00;2.90;;;16.00;97.00;;;;;;5065571;28;20186;-76
2022/09/26 10:04:04;;;;;;;6.00;2.67;;;16.00;98.10;;;;;;5063635;28;20181;-76
2022/09/26 10:06:32;;;;;;;3.67;3.10;;;16.10;97.00;;;;;;5067290;28;20234;-76
2022/09/26 10:09:15;;;;;;;3.10;2.80;;;16.10;97.70;;;;;;5065853;28;20177;-76
2022/09/26 10:11:59;;;;;;;4.33;2.40;;;16.00;96.90;;;;;;5081938;28;20192;-77
2022/09/26 10:15:01;;;;;;;3.77;2.40;;;16.00;93.80;;;;;;5079972;28;20211;-76
2022/09/26 10:18:15;;;;;;;3.93;2.60;;;15.90;96.40;;;;;;5058207;28;20200;-76
2022/09/26 10:20:51;;;;;;;5.27;3.10;;;16.00;95.70;;;;;;5062702;28;20211;-76
2022/09/26 10:23:32;;;;;;;3.90;2.77;;;16.00;96.90;;;;;;5066224;28;20187;-80
2022/09/26 10:26:04;;;;;;;5.70;2.70;;;16.10;98.50;;;;;;5089212;28;20679;-74
2022/09/26 10:28:51;;;;;;;4.57;2.70;;;16.10;97.50;;;;;;5061078;28;20180;-74
2022/09/26 10:31:28;;;;;;;3.90;2.30;;;16.10;97.10;;;;;;5064978;28;20183;-76
2022/09/26 10:34:27;;;;;;;3.93;2.57;;;16.10;98.00;;;;;;5061278;28;20706;-76
2022/09/26 10:36:54;;;;;;;4.43;2.50;;;16.10;98.30;;;;;;5064313;28;20195;-79
2022/09/26 10:42:21;;;;;;;3.60;2.53;;;16.00;97.50;;;;;;5080139;28;20180;-76
2022/09/26 10:44:56;;;;;;;3.23;2.23;;;16.10;96.30;;;;;;5066483;28;20184;-77
2022/09/26 10:47:52;;;;;;;3.43;2.37;;;16.00;96.20;;;;;;5057805;28;20181;-78
2022/09/26 10:50:38;;;;;;;3.50;2.27;;;16.10;95.30;;;;;;5069138;28;20264;-77
2022/09/26 10:53:24;;;;;;;3.10;2.33;;;16.30;95.10;;;;;;5084589;28;21003;-80
2022/09/26 10:55:56;;;;;;;2.93;2.30;;;16.40;93.40;;;;;;5053859;28;20268;-76
2022/09/26 10:58:28;;;;;;;2.77;2.20;;;16.60;92.80;;;;;;5048164;28;20181;-78
2022/09/26 11:00:59;;;;;;;2.33;1.90;;;16.90;91.10;;;;;;5060319;28;20281;-77
2022/09/26 11:03:38;;;;;;;2.93;1.97;;;17.00;84.70;;;;;;5065621;28;20181;-77
2022/09/26 11:06:26;;;;;;;2.93;2.10;;;17.00;85.00;;;;;;5062935;28;20204;-78
2022/09/26 11:09:03;;;;;;;5.20;1.80;;;17.10;81.90;;;;;;5064659;28;20182;-78
2022/09/26 11:11:50;;;;;;;4.37;2.17;;;17.10;81.20;;;;;;5078710;28;20192;-77
2022/09/26 11:14:28;;;;;;;4.03;2.23;;;17.20;79.20;;;;;;5065508;28;20215;-78
2022/09/26 11:16:59;;;;;;;3.70;2.10;;;17.10;79.10;;;;;;5045461;28;20187;-76
2022/09/26 11:19:43;;;;;;;4.03;2.30;;;17.10;81.60;;;;;;5063813;28;20206;-83
2022/09/26 11:22:24;;;;;;;3.60;1.90;;;17.10;80.00;;;;;;5056698;28;20211;-83
2022/09/26 11:25:05;;;;;;;2.30;1.70;;;17.10;80.90;;;;;;5050045;28;20197;-84
2022/09/26 11:27:53;;;;;;;2.00;1.53;;;17.30;81.80;;;;;;5035234;28;20185;-79
2022/09/26 11:30:37;;;;;;;5.27;1.60;;;17.70;77.60;;;;;;5065492;28;20726;-79
2022/09/26 11:33:11;;;;;;;3.60;1.70;;;18.30;73.20;;;;;;5063140;28;20229;-79
2022/09/26 11:36:13;;;;;;;2.23;1.60;;;18.70;71.30;;;;;;5088088;28;20185;-79
2022/09/26 11:38:49;;;;;;;3.73;1.67;;;19.20;68.20;;;;;;5072504;28;20206;-79
2022/09/26 11:41:35;;;;;;;2.27;1.33;;;19.30;64.20;;;;;;5068895;28;20176;-79
2022/09/26 11:44:18;;;;;;;2.83;1.40;;;19.60;64.20;;;;;;5067234;28;20180;-79
2022/09/26 11:47:43;;;;;;;3.13;1.40;;;20.00;60.60;;;;;;5060522;28;20196;-79
2022/09/26 11:50:30;;;;;;;1.73;1.30;;;20.40;58.60;;;;;;5060938;28;20454;-79
2022/09/26 11:53:24;;;;;;;2.23;1.37;;;20.30;58.20;;;;;;5074635;28;20209;-79
2022/09/26 11:55:56;;;;;;;4.73;1.30;;;19.80;58.20;;;;;;5086269;28;20259;-79
2022/09/26 11:58:37;;;;;;;4.57;1.70;;;19.40;59.80;;;;;;5068303;28;20664;-79
2022/09/26 12:01:11;;;;;;;3.23;1.30;;;19.20;60.40;;;;;;5067249;28;20216;-79
2022/09/26 12:03:57;;;;;;;2.03;1.50;;;19.10;60.60;;;;;;5066439;28;20272;-79
2022/09/26 12:06:32;;;;;;;3.20;1.33;;;19.20;59.30;;;;;;5084675;28;20199;-79
2022/09/26 12:09:21;;;;;;;2.53;1.30;;;19.50;59.60;;;;;;5067314;28;20253;-79
2022/09/26 12:11:58;;;;;;;4.83;1.70;;;19.70;58.60;;;;;;5091297;28;20275;-79
2022/09/26 12:14:35;;;;;;;2.13;1.87;;;19.50;58.20;;;;;;5048731;28;20214;-78
2022/09/26 12:17:19;;;;;;;3.03;1.60;;;19.20;58.40;;;;;;5082986;28;20172;-80
2022/09/26 12:20:12;;;;;;;2.00;1.30;;;19.00;58.60;;;;;;5067498;28;20188;-78
2022/09/26 12:23:08;;;;;;;3.40;1.53;;;19.00;59.20;;;;;;5088223;28;20249;-78
2022/09/26 12:26:04;;;;;;;3.30;1.40;;;19.10;58.30;;;;;;5086306;28;20195;-78
2022/09/26 12:29:07;;;;;;;1.33;1.23;;;19.60;57.00;;;;;;5083365;28;20193;-81
2022/09/26 12:31:33;;;;;;;5.43;1.20;;;;;;;;;;5067570;28;20188;-80
2022/09/26 12:34:24;;;;;;;5.57;1.30;;;21.30;53.20;;;;;;5065052;28;20192;-80
2022/09/26 12:37:09;;;;;;;2.13;1.23;;;21.80;52.00;;;;;;5083724;28;20583;-79
2022/09/26 12:40:00;;;;;;;2.83;1.30;;;21.40;51.90;;;;;;5085606;28;20201;-79
2022/09/26 12:42:37;;;;;;;3.57;1.50;;;20.90;52.90;;;;;;5066108;28;20201;-79
2022/09/26 12:45:32;;;;;;;2.07;1.20;;;20.20;53.00;;;;;;5083656;28;20192;-79
2022/09/26 12:48:22;;;;;;;2.67;1.40;;;19.80;54.00;;;;;;5071370;28;20185;-77
2022/09/26 12:51:08;;;;;;;3.90;1.30;;;19.50;54.40;;;;;;5081595;28;20719;-76
2022/09/26 12:54:11;;;;;;;3.00;1.33;;;19.40;55.00;;;;;;5078537;28;20205;-77
2022/09/26 12:57:10;;;;;;;3.20;1.30;;;19.50;55.50;;;;;;5082129;28;20184;-74
2022/09/26 13:00:11;;;;;;;2.60;1.50;;;19.30;54.60;;;;;;5078589;28;20658;-74
2022/09/26 13:03:06;;;;;;;1.93;1.40;;;18.90;55.20;;;;;;5085516;28;20176;-75
2022/09/26 13:05:59;;;;;;;2.60;1.30;;;18.50;55.60;;;;;;5084806;28;20719;-74
2022/09/26 13:09:01;;;;;;;2.43;1.40;;;18.20;57.10;;;;;;5084142;28;20686;-73
2022/09/26 13:11:43;;;;;;;4.10;1.27;;;17.80;58.80;;;;;;5084364;28;20211;-73
2022/09/26 13:14:31;;;;;;;1.90;1.50;;;17.50;61.40;;;;;;5085922;28;20217;-73
2022/09/26 13:17:05;;;;;;;2.70;2.00;;;17.00;64.10;;;;;;5080331;28;20180;-72
2022/09/26 13:19:34;;;;;;;2.73;1.77;;;16.70;66.60;;;;;;5063043;28;20204;-73
2022/09/26 13:22:26;;;;;;;4.00;1.50;;;16.60;67.10;;;;;;5080259;28;20189;-73
2022/09/26 13:25:00;;;;;;;3.47;1.70;;;16.70;67.90;;;;;;5077521;28;20271;-73
2022/09/26 13:27:37;;;;;;;2.07;1.40;;;16.80;69.10;;;;;;5079058;28;20201;-74
2022/09/26 13:30:11;;;;;;;1.80;1.40;;;16.80;68.10;;;;;;5083934;28;20269;-74
2022/09/26 13:32:54;;;;;;;2.53;1.53;;;16.80;69.60;;;;;;5080349;28;20722;-74
2022/09/26 13:35:27;;;;;;;1.73;1.37;;;16.80;71.90;;;;;;5083348;28;20253;-73
2022/09/26 13:37:56;;;;;;;2.33;1.43;;;16.80;71.50;;;;;;5083273;28;20180;-73
2022/09/26 13:40:33;;;;;;;1.40;1.30;;;16.80;72.50;;;;;;5080446;28;20205;-74
2022/09/26 13:43:19;;;;;;;3.53;3.07;;;16.80;72.40;;;;;;5086299;28;20184;-73
2022/09/26 13:45:54;;;;;;;2.13;1.60;;;16.80;74.90;;;;;;5082481;28;20187;-74
2022/09/26 13:48:36;;;;;;;4.87;2.93;;;16.80;75.10;;;;;;5082495;28;20167;-74
2022/09/26 13:51:17;;;;;;;6.03;4.40;;;16.80;77.60;;;;;;5080659;28;20848;-73
2022/09/26 13:53:59;;;;;;;2.80;1.73;;;16.70;79.60;;;;;;5081728;28;20977;-74